Syktyvkar Airport
UUYY : now visible

Airfield :











YOU CAN JOIN US ON...

 
LOGIN :

Register | Disclaimer

   EN    FR    IT 

 









Legend :    VFR   Marginal VFR   IFR   Intensive IFR   Very Intensive IFR
Visi :
Ceiling :
>= 8 km
>= 3000ft
5 to 8 km
1000 to 3000 ft
1500m to 5 km
500 to 1000 ft
800 to 1500m
200 to 500 ft
< 800m
< 200 ft
Symbols :   Thunderstorms  Fog  Heavy snow  Heavy precipitations  Wind > 20 kt






- Airport Elevation : 342 ft
- IATA code : SCW


UUYY - Syktyvkar

CURRENT METAR :
  • 020630Z 21004MPS 6000 -SHSN BKN036CB M04/M08 Q0990 R18/450141 NOSIG RMK QFE734/0979

EXPIRED METARs :
  • 020600Z 20004MPS 9999 SCT036CB M04/M08 Q0990 R18/450141 NOSIG RMK QFE734/0979
  • 020530Z 20003MPS 8000 -SHSN SCT030CB M06/M09 Q0991 R18/450141 NOSIG RMK QFE735/0980
  • 020500Z 21003MPS 170V250 7000 -SHSN SCT033CB M07/M10 Q0991 R18/450141 NOSIG RMK QFE735/0980
  • 020430Z 21003MPS 7000 -SN BKN049 M07/M10 Q0991 R18/450141 NOSIG RMK QFE735/0980
  • 020400Z 21003MPS 9000 SCT049 M08/M11 Q0991 R18/450141 NOSIG RMK QFE735/0980

TAF TAF UUYY
Valid from the 02 at 06:00 until the 03 at 06:00 UTC


020500Z 0206/0306 22005G12MPS 5000 -SHSN BKN011 BKN016CB
TEMPO 0206/0212 1000 SHSN BR BKN005 BKN012CB
TEMPO 0212/0306 3100 -SHSN FEW007 BKN015CB



MET'MAP, your aeronautical weather chart ! - Copyright ORBIFLY December 2007 - Disclaimer

ORBIFLY MET'MAP TEAM :

Programming & Development : Alexandra Zaïnal
Concept & original design : Baudouin d'Aumeries
Assistance for programming : Marc-Olivier Méhu
Technical & hardware support : Manuel Goepfert

Contact : metmap@orbifly.com




SOURCES & CREDITS :

   NOAA       Earth
Advisory